createdAt,value
2022-11-24T00:01:59.123Z,3.12
2022-11-24T00:04:31.284Z,3.10
2022-11-24T00:07:03.389Z,3.08
2022-11-24T00:09:35.130Z,3.09
2022-11-24T00:12:07.611Z,3.09
2022-11-24T00:14:39.380Z,3.11
2022-11-24T00:17:25.159Z,3.13
2022-11-24T00:19:57.006Z,3.16
2022-11-24T00:22:28.792Z,3.18
2022-11-24T00:25:00.616Z,3.12
2022-11-24T00:27:57.842Z,3.08
2022-11-24T00:30:46.628Z,3.13
2022-11-24T00:33:18.421Z,3.14
2022-11-24T00:35:57.308Z,3.13
2022-11-24T00:38:29.143Z,3.16
2022-11-24T00:41:00.946Z,3.16
2022-11-24T00:43:32.786Z,3.19
2022-11-24T00:46:04.876Z,3.22
2022-11-24T00:48:36.728Z,3.26
2022-11-24T00:51:11.007Z,3.28
2022-11-24T00:53:43.154Z,3.30
2022-11-24T00:56:15.642Z,3.32
2022-11-24T00:58:47.733Z,3.28
2022-11-24T01:01:21.659Z,3.20
2022-11-24T01:03:54.695Z,3.07
2022-11-24T01:06:27.691Z,3.06
2022-11-24T01:09:00.276Z,3.11
2022-11-24T01:11:55.434Z,3.12
2022-11-24T01:14:27.754Z,3.12
2022-11-24T01:16:59.579Z,3.11
2022-11-24T01:19:31.292Z,3.13
2022-11-24T01:22:03.108Z,3.14
2022-11-24T01:24:35.075Z,3.08
2022-11-24T01:27:07.100Z,3.01
2022-11-24T01:29:38.869Z,2.97
2022-11-24T01:32:10.750Z,2.99
2022-11-24T01:34:42.738Z,3.01
2022-11-24T01:37:14.623Z,3.02
2022-11-24T01:39:46.553Z,3.04
2022-11-24T01:42:18.434Z,3.08
2022-11-24T01:44:53.284Z,3.12
2022-11-24T01:47:34.661Z,3.11
2022-11-24T01:50:12.487Z,3.11
2022-11-24T01:52:47.721Z,3.12
2022-11-24T01:55:22.556Z,3.13
2022-11-24T01:57:58.754Z,3.15
2022-11-24T02:00:30.518Z,3.14
2022-11-24T02:03:02.469Z,3.15
2022-11-24T02:05:39.983Z,3.14
2022-11-24T02:08:17.258Z,3.12
2022-11-24T02:10:49.642Z,3.13
2022-11-24T02:13:22.789Z,3.18
2022-11-24T02:15:55.335Z,3.18
2022-11-24T02:18:27.259Z,3.17
2022-11-24T02:21:00.572Z,3.17
2022-11-24T02:23:39.760Z,3.20
2022-11-24T02:26:18.697Z,3.22
2022-11-24T02:28:51.418Z,3.24
2022-11-24T02:31:23.496Z,3.21
2022-11-24T02:33:56.680Z,3.15
2022-11-24T02:36:28.534Z,3.12
2022-11-24T02:39:00.339Z,3.14
2022-11-24T02:41:32.200Z,3.18
2022-11-24T02:44:04.444Z,3.12
2022-11-24T02:46:36.200Z,3.04
2022-11-24T02:49:08.085Z,3.07
2022-11-24T02:51:39.853Z,3.13
2022-11-24T02:54:11.641Z,3.19
2022-11-24T02:56:43.357Z,3.25
2022-11-24T02:59:15.122Z,3.30
2022-11-24T03:01:47.069Z,3.27
2022-11-24T03:04:18.954Z,3.26
2022-11-24T03:06:50.782Z,3.28
2022-11-24T03:09:22.816Z,3.29
2022-11-24T03:11:54.637Z,3.26
2022-11-24T03:14:26.511Z,3.21
2022-11-24T03:16:58.525Z,3.13
2022-11-24T03:19:30.368Z,3.06
2022-11-24T03:22:02.520Z,2.95
2022-11-24T03:24:34.595Z,2.96
2022-11-24T03:27:06.712Z,2.94
2022-11-24T03:29:38.514Z,2.94
2022-11-24T03:32:10.259Z,2.88
2022-11-24T03:34:42.036Z,2.89
2022-11-24T03:37:13.804Z,2.86
2022-11-24T03:39:45.577Z,2.77
2022-11-24T03:42:17.497Z,2.65
2022-11-24T03:44:49.312Z,2.66
2022-11-24T03:47:21.084Z,2.75
2022-11-24T03:49:52.848Z,2.74
2022-11-24T03:52:26.693Z,2.75
2022-11-24T03:54:58.450Z,2.77
2022-11-24T03:57:30.242Z,2.79
2022-11-24T04:00:02.381Z,2.81
2022-11-24T04:02:34.158Z,2.84
2022-11-24T04:05:06.495Z,2.89
2022-11-24T04:07:38.402Z,2.94
2022-11-24T04:10:16.316Z,3.01
2022-11-24T04:12:48.128Z,3.07
2022-11-24T04:15:21.141Z,3.10
2022-11-24T04:17:55.724Z,3.13
2022-11-24T04:20:27.930Z,3.12
2022-11-24T04:22:59.806Z,3.15
2022-11-24T04:25:31.778Z,3.14
2022-11-24T04:28:03.675Z,3.17
2022-11-24T04:30:36.293Z,3.19
2022-11-24T04:33:08.057Z,3.17
2022-11-24T04:35:39.921Z,3.15
2022-11-24T04:38:11.717Z,3.14
2022-11-24T04:40:43.566Z,3.12
2022-11-24T04:43:16.376Z,3.10
2022-11-24T04:45:48.390Z,3.06
2022-11-24T04:48:20.216Z,2.89
2022-11-24T04:50:52.085Z,2.83
2022-11-24T04:53:24.043Z,2.80
2022-11-24T04:55:55.854Z,2.75
2022-11-24T04:58:27.628Z,2.74
2022-11-24T05:00:59.403Z,2.78
2022-11-24T05:03:31.725Z,2.80
2022-11-24T05:06:03.857Z,2.81
2022-11-24T05:08:35.690Z,2.77
2022-11-24T05:11:08.849Z,2.70
2022-11-24T05:13:40.665Z,2.67
2022-11-24T05:16:12.939Z,2.66
2022-11-24T05:18:44.734Z,2.66
2022-11-24T05:21:17.254Z,2.62
2022-11-24T05:23:49.101Z,2.67
2022-11-24T05:26:22.676Z,2.75
2022-11-24T05:28:54.507Z,2.81
2022-11-24T05:31:26.363Z,2.85
2022-11-24T05:33:58.124Z,2.80
2022-11-24T05:36:47.785Z,2.74
2022-11-24T05:39:19.594Z,2.78
2022-11-24T05:41:51.424Z,2.85
2022-11-24T05:44:23.105Z,2.89
2022-11-24T05:46:55.453Z,2.93
2022-11-24T05:49:27.317Z,2.96
2022-11-24T05:51:59.072Z,2.84
2022-11-24T05:54:30.916Z,2.69
2022-11-24T05:57:02.724Z,2.52
2022-11-24T05:59:34.407Z,2.47
2022-11-24T06:02:06.283Z,2.47
2022-11-24T06:04:38.282Z,2.52
2022-11-24T06:07:30.907Z,2.55
2022-11-24T06:10:02.563Z,2.53
2022-11-24T06:12:34.287Z,2.47
2022-11-24T06:15:08.419Z,2.52
2022-11-24T06:17:40.829Z,2.61
2022-11-24T06:20:14.010Z,2.64
2022-11-24T06:22:45.747Z,2.70
2022-11-24T06:25:19.216Z,2.79
2022-11-24T06:27:51.017Z,2.89
2022-11-24T06:30:26.586Z,2.97
2022-11-24T06:32:58.692Z,2.98
2022-11-24T06:35:30.372Z,2.99
2022-11-24T06:38:02.167Z,3.02
2022-11-24T06:40:33.999Z,3.05
2022-11-24T06:43:05.769Z,3.06
2022-11-24T06:45:37.970Z,3.06
2022-11-24T06:48:10.069Z,3.08
2022-11-24T06:50:41.869Z,3.07
2022-11-24T06:53:13.816Z,3.04
2022-11-24T06:55:46.275Z,3.07
2022-11-24T06:58:18.059Z,3.06
2022-11-24T07:00:49.834Z,3.08
2022-11-24T07:03:22.173Z,3.11
2022-11-24T07:05:59.021Z,3.17
2022-11-24T07:08:31.148Z,3.22
2022-11-24T07:11:08.568Z,3.27
2022-11-24T07:13:40.367Z,3.31
2022-11-24T07:16:18.628Z,3.30
2022-11-24T07:18:52.366Z,3.34
2022-11-24T07:21:26.165Z,3.33
2022-11-24T07:23:59.487Z,3.37
2022-11-24T07:26:31.317Z,3.40
2022-11-24T07:29:03.188Z,3.41
2022-11-24T07:31:34.914Z,3.41
2022-11-24T07:34:06.627Z,3.42
2022-11-24T07:36:38.250Z,3.44
2022-11-24T07:39:10.106Z,3.41
2022-11-24T07:41:41.958Z,3.40
2022-11-24T07:44:16.396Z,3.41
2022-11-24T07:46:51.407Z,3.40
2022-11-24T07:49:23.180Z,3.43
2022-11-24T07:51:54.778Z,3.43
2022-11-24T07:54:26.702Z,3.44
2022-11-24T07:56:58.759Z,3.44
2022-11-24T07:59:30.587Z,3.50
2022-11-24T08:02:02.369Z,3.56
2022-11-24T08:27:00.474Z,4.20
2022-11-24T09:43:20.305Z,4.93
2022-11-24T09:46:05.658Z,4.77
2022-11-24T09:48:41.061Z,4.68
2022-11-24T09:51:16.104Z,4.57
2022-11-24T09:53:52.568Z,4.53
2022-11-24T09:56:27.247Z,4.54
2022-11-24T09:59:03.879Z,4.53
2022-11-24T10:01:38.009Z,4.51
2022-11-24T10:04:19.611Z,4.52
2022-11-24T10:06:58.871Z,4.51
2022-11-24T10:09:46.743Z,4.50
2022-11-24T10:12:31.779Z,4.48
2022-11-24T10:15:27.553Z,4.46
2022-11-24T10:18:22.035Z,4.48
2022-11-24T10:21:03.087Z,4.48
2022-11-24T10:23:43.804Z,4.47
2022-11-24T10:26:19.842Z,4.45
2022-11-24T10:28:57.976Z,4.44
2022-11-24T10:31:35.287Z,4.42
2022-11-24T10:34:14.915Z,4.46
2022-11-24T10:36:53.196Z,4.52
2022-11-24T10:39:33.683Z,4.58
2022-11-24T10:42:13.409Z,4.61
2022-11-24T10:44:45.901Z,4.68
2022-11-24T10:47:23.017Z,4.72
2022-11-24T10:50:03.942Z,4.77
2022-11-24T10:52:48.165Z,4.80
2022-11-24T10:55:21.691Z,4.80
2022-11-24T10:57:53.763Z,4.83
2022-11-24T11:00:36.528Z,4.85
2022-11-24T11:03:24.264Z,4.90
2022-11-24T11:06:00.541Z,4.95
2022-11-24T11:08:33.703Z,4.97
2022-11-24T11:11:31.439Z,4.99
2022-11-24T11:14:04.941Z,4.97
2022-11-24T11:16:39.234Z,4.95
2022-11-24T11:19:48.507Z,4.99
2022-11-24T11:22:28.190Z,4.99
2022-11-24T11:25:19.087Z,5.06
2022-11-24T11:27:51.043Z,5.15
2022-11-24T11:36:18.404Z,5.30
2022-11-24T11:38:50.435Z,5.34
2022-11-24T11:41:26.916Z,5.36
2022-11-24T11:44:11.855Z,5.40
2022-11-24T11:46:44.931Z,5.43
2022-11-24T11:49:16.993Z,5.40
2022-11-24T11:52:05.183Z,5.43
2022-11-24T11:54:55.130Z,5.47
2022-11-24T11:57:36.005Z,5.41
2022-11-24T12:00:16.561Z,5.30
2022-11-24T12:03:09.594Z,5.25
2022-11-24T12:05:52.214Z,5.22
2022-11-24T12:09:03.135Z,5.24
2022-11-24T12:11:45.027Z,5.27
2022-11-24T12:14:42.262Z,5.30
2022-11-24T12:17:31.036Z,5.29
2022-11-24T12:23:11.505Z,5.34
2022-11-24T12:25:46.599Z,5.37
2022-11-24T12:28:34.423Z,5.37
2022-11-24T12:31:11.920Z,5.39
2022-11-24T12:34:01.809Z,5.34
2022-11-24T12:36:48.893Z,5.36
2022-11-24T12:39:28.801Z,5.35
2022-11-24T12:42:10.611Z,5.37
2022-11-24T12:44:56.893Z,5.41
2022-11-24T12:47:35.247Z,5.42
2022-11-24T12:50:12.897Z,5.45
2022-11-24T12:52:54.160Z,5.42
2022-11-24T12:55:32.360Z,5.42
2022-11-24T12:58:12.974Z,5.43
2022-11-24T13:00:59.436Z,5.46
2022-11-24T13:03:42.599Z,5.43
2022-11-24T13:06:20.365Z,5.44
2022-11-24T13:11:56.743Z,5.44
2022-11-24T13:14:37.412Z,5.41
2022-11-24T13:17:32.880Z,5.43
2022-11-24T13:20:34.440Z,5.43
2022-11-24T13:23:21.206Z,5.41
2022-11-24T13:26:27.600Z,5.36
2022-11-24T13:29:17.887Z,5.30
2022-11-24T13:31:56.739Z,5.32
2022-11-24T13:35:04.676Z,5.33
2022-11-24T13:37:52.831Z,5.35
2022-11-24T13:40:59.900Z,5.35
2022-11-24T13:43:36.872Z,5.35
2022-11-24T13:46:12.390Z,5.35
2022-11-24T13:49:01.248Z,5.38
2022-11-24T13:51:33.133Z,5.40
2022-11-24T13:54:05.136Z,5.36
2022-11-24T13:56:36.847Z,5.28
2022-11-24T13:59:27.040Z,5.26
2022-11-24T14:02:01.063Z,5.22
2022-11-24T14:04:33.663Z,5.16
2022-11-24T14:10:18.123Z,5.17
2022-11-24T14:13:09.927Z,5.18
2022-11-24T14:15:41.648Z,5.15
2022-11-24T14:18:23.743Z,5.13
2022-11-24T14:20:55.355Z,5.14
2022-11-24T14:23:27.254Z,5.13
2022-11-24T14:26:00.883Z,5.10
2022-11-24T14:28:32.878Z,5.06
2022-11-24T14:31:20.458Z,5.03
2022-11-24T14:34:07.868Z,5.00
2022-11-24T14:36:39.771Z,4.98
2022-11-24T14:39:15.226Z,4.89
2022-11-24T14:41:54.328Z,4.88
2022-11-24T14:44:29.530Z,4.88
2022-11-24T14:47:06.348Z,4.86
2022-11-24T14:49:44.109Z,4.87
2022-11-24T14:52:19.102Z,4.88
2022-11-24T14:54:52.707Z,4.87
2022-11-24T14:57:27.767Z,4.86
2022-11-24T15:00:20.185Z,4.85
2022-11-24T15:02:55.353Z,4.81
2022-11-24T15:05:47.625Z,4.75
2022-11-24T15:08:19.548Z,4.72
2022-11-24T15:10:59.682Z,4.71
2022-11-24T15:13:37.113Z,4.71
2022-11-24T15:16:16.505Z,4.72
2022-11-24T15:18:50.661Z,4.76
2022-11-24T15:21:32.901Z,4.75
2022-11-24T15:24:18.453Z,4.75
2022-11-24T15:26:50.367Z,4.73
2022-11-24T15:29:22.407Z,4.70
2022-11-24T15:33:17.045Z,4.72
2022-11-24T15:35:49.148Z,4.65
2022-11-24T15:38:20.975Z,4.61
2022-11-24T15:40:55.395Z,4.61
2022-11-24T15:43:32.143Z,4.64
2022-11-24T15:46:05.130Z,4.65
2022-11-24T15:48:36.831Z,4.66
2022-11-24T15:51:12.627Z,4.68
2022-11-24T15:53:48.098Z,4.69
2022-11-24T15:56:26.431Z,4.68
2022-11-24T15:58:58.170Z,4.65
2022-11-24T16:01:33.748Z,4.61
2022-11-24T16:04:05.818Z,4.60
2022-11-24T16:06:37.566Z,4.60
2022-11-24T16:09:11.454Z,4.56
2022-11-24T16:11:43.165Z,4.54
2022-11-24T16:14:14.881Z,4.48
2022-11-24T16:16:46.754Z,4.47
2022-11-24T16:19:18.414Z,4.48
2022-11-24T16:21:51.102Z,4.50
2022-11-24T16:24:22.758Z,4.46
2022-11-24T16:26:54.584Z,4.43
2022-11-24T16:29:26.250Z,4.42
2022-11-24T16:31:58.692Z,4.41
2022-11-24T16:34:30.407Z,4.40
2022-11-24T16:37:02.045Z,4.36
2022-11-24T16:39:33.749Z,4.32
2022-11-24T16:42:06.218Z,4.27
2022-11-24T16:44:38.060Z,4.25
2022-11-24T16:47:09.958Z,4.24
2022-11-24T16:49:41.799Z,4.24
2022-11-24T16:52:13.697Z,4.26
2022-11-24T16:54:46.403Z,4.29
2022-11-24T16:57:18.171Z,4.30
2022-11-24T16:59:49.961Z,4.31
2022-11-24T17:02:23.285Z,4.27
2022-11-24T17:04:58.167Z,4.25
2022-11-24T17:07:29.895Z,4.20
2022-11-24T17:10:03.669Z,4.17
2022-11-24T17:13:03.089Z,4.10
2022-11-24T17:15:45.278Z,4.03
2022-11-24T17:18:26.570Z,3.99
2022-11-24T17:21:06.008Z,3.95
2022-11-24T17:23:41.428Z,3.98
2022-11-24T17:26:15.175Z,4.01
2022-11-24T17:28:46.850Z,4.06
2022-11-24T17:31:26.130Z,4.10
2022-11-24T17:34:01.187Z,4.12
2022-11-24T17:36:34.584Z,4.13
2022-11-24T17:39:08.068Z,4.12
2022-11-24T17:41:39.938Z,4.11
2022-11-24T17:44:14.581Z,4.09
2022-11-24T17:46:48.864Z,4.11
2022-11-24T17:49:21.272Z,4.09
2022-11-24T17:51:53.046Z,4.07
2022-11-24T17:54:45.298Z,4.08
2022-11-24T17:57:19.508Z,4.10
2022-11-24T17:59:51.632Z,3.99
2022-11-24T18:02:23.624Z,3.92
2022-11-24T18:04:55.370Z,3.89
2022-11-24T18:07:27.176Z,3.83
2022-11-24T18:09:59.028Z,3.71
2022-11-24T18:12:30.800Z,3.66
2022-11-24T18:15:02.427Z,3.65
2022-11-24T18:17:34.215Z,3.67
2022-11-24T18:20:12.955Z,3.74
2022-11-24T18:23:05.530Z,3.72
2022-11-24T18:25:37.336Z,3.72
2022-11-24T18:28:09.406Z,3.78
2022-11-24T18:30:41.147Z,3.79
2022-11-24T18:33:12.929Z,3.79
2022-11-24T18:35:44.696Z,3.76
2022-11-24T18:38:17.705Z,3.75
2022-11-24T18:40:55.395Z,3.77
2022-11-24T18:43:31.247Z,3.79
2022-11-24T18:46:06.487Z,3.75
2022-11-24T18:48:39.464Z,3.73
2022-11-24T18:51:14.660Z,3.72
2022-11-24T18:53:47.411Z,3.76
2022-11-24T18:56:19.437Z,3.76
2022-11-24T18:58:55.331Z,3.81
2022-11-24T19:01:30.861Z,3.85
2022-11-24T19:04:04.673Z,3.85
2022-11-24T19:06:39.720Z,3.86
2022-11-24T19:09:15.036Z,3.89
2022-11-24T19:11:47.895Z,3.87
2022-11-24T19:14:20.567Z,3.82
2022-11-24T19:16:52.712Z,3.80
2022-11-24T19:19:24.401Z,3.76
2022-11-24T19:21:56.310Z,3.72
2022-11-24T19:24:30.883Z,3.71
2022-11-24T19:27:02.736Z,3.67
2022-11-24T19:29:37.866Z,3.63
2022-11-24T19:32:16.086Z,3.59
2022-11-24T19:34:47.765Z,3.56
2022-11-24T19:37:19.484Z,3.56
2022-11-24T19:39:51.197Z,3.56
2022-11-24T19:42:22.887Z,3.56
2022-11-24T19:44:56.629Z,3.54
2022-11-24T19:47:28.995Z,3.47
2022-11-24T19:50:00.730Z,3.43
2022-11-24T19:52:34.505Z,3.40
2022-11-24T19:55:07.138Z,3.40
2022-11-24T19:57:38.853Z,3.38
2022-11-24T20:00:24.014Z,3.35
2022-11-24T20:02:57.781Z,3.35
2022-11-24T20:05:29.524Z,3.36
2022-11-24T20:08:01.214Z,3.35
2022-11-24T20:10:33.026Z,3.36
2022-11-24T20:13:04.674Z,3.35
2022-11-24T20:15:37.420Z,3.36
2022-11-24T20:18:09.150Z,3.34
2022-11-24T20:20:40.835Z,3.33
2022-11-24T20:23:12.571Z,3.30
2022-11-24T20:25:44.260Z,3.31
2022-11-24T20:28:15.924Z,3.32
2022-11-24T20:30:47.611Z,3.35
2022-11-24T20:33:19.216Z,3.32
2022-11-24T20:35:50.815Z,3.32
2022-11-24T20:38:22.505Z,3.30
2022-11-24T20:40:54.533Z,3.26
2022-11-24T20:43:26.209Z,3.20
2022-11-24T20:45:58.051Z,3.17
2022-11-24T20:48:29.696Z,3.16
2022-11-24T20:51:06.946Z,3.22
2022-11-24T20:53:39.122Z,3.25
2022-11-24T20:56:13.852Z,3.25
2022-11-24T20:58:46.601Z,3.27
2022-11-24T21:01:28.408Z,3.30
2022-11-24T21:04:02.061Z,3.34
2022-11-24T21:06:33.753Z,3.30
2022-11-24T21:09:06.363Z,3.32
2022-11-24T21:11:40.496Z,3.31
2022-11-24T21:14:14.238Z,3.33
2022-11-24T21:16:46.004Z,3.37
2022-11-24T21:19:18.926Z,3.38
2022-11-24T21:21:50.946Z,3.35
2022-11-24T21:24:22.862Z,3.37
2022-11-24T21:26:54.660Z,3.33
2022-11-24T21:29:27.676Z,3.29
2022-11-24T21:31:59.435Z,3.27
2022-11-24T21:34:31.376Z,3.25
2022-11-24T21:37:03.052Z,3.26
2022-11-24T21:39:36.452Z,3.23
2022-11-24T21:42:09.095Z,3.16
2022-11-24T21:44:40.738Z,3.05
2022-11-24T21:47:12.387Z,3.04
2022-11-24T21:49:44.031Z,3.00
2022-11-24T21:52:15.705Z,2.98
2022-11-24T21:54:49.103Z,2.93
2022-11-24T21:57:23.213Z,2.87
2022-11-24T22:00:26.584Z,2.82
2022-11-24T22:02:58.362Z,2.82
2022-11-24T22:05:30.033Z,2.84
2022-11-24T22:08:01.721Z,2.92
2022-11-24T22:10:33.358Z,2.94
2022-11-24T22:13:05.075Z,2.94
2022-11-24T22:15:46.175Z,2.95
2022-11-24T22:18:17.846Z,2.91
2022-11-24T22:20:57.359Z,2.96
2022-11-24T22:23:34.062Z,3.03
2022-11-24T22:26:08.879Z,3.10
2022-11-24T22:28:43.887Z,3.15
2022-11-24T22:31:17.731Z,3.14
2022-11-24T22:33:49.927Z,3.14
2022-11-24T22:36:22.959Z,3.16
2022-11-24T22:39:03.228Z,3.19
2022-11-24T22:41:36.695Z,3.19
2022-11-24T22:44:10.106Z,3.14
2022-11-24T22:46:41.716Z,3.16
2022-11-24T22:49:13.539Z,3.21
2022-11-24T22:51:45.579Z,3.25
2022-11-24T22:54:17.252Z,3.25
2022-11-24T22:56:48.950Z,3.25
2022-11-24T22:59:36.835Z,3.26
2022-11-24T23:02:08.980Z,3.28
2022-11-24T23:04:40.651Z,3.33
2022-11-24T23:07:12.339Z,3.38
2022-11-24T23:09:44.023Z,3.43
2022-11-24T23:12:15.714Z,3.47
2022-11-24T23:14:47.489Z,3.49
2022-11-24T23:17:19.117Z,3.48
2022-11-24T23:19:53.145Z,3.51
2022-11-24T23:22:24.828Z,3.51
2022-11-24T23:24:56.459Z,3.53
2022-11-24T23:27:28.087Z,3.49
2022-11-24T23:29:59.790Z,3.49
2022-11-24T23:32:31.415Z,3.54
2022-11-24T23:35:03.062Z,3.57
2022-11-24T23:37:59.859Z,3.60
2022-11-24T23:40:31.119Z,3.61
2022-11-24T23:43:02.799Z,3.61
2022-11-24T23:45:34.548Z,3.59
2022-11-24T23:48:08.609Z,3.56
2022-11-24T23:50:40.237Z,3.52
2022-11-24T23:53:12.094Z,3.47
2022-11-24T23:55:43.747Z,3.37
2022-11-24T23:58:15.328Z,3.35
